Aviation Digital Data Service (ADDS)

Output produced by METARs form (2013 UTC 21 September 2021)
found at http://aviationweather.gov/metar/data/
 
KSVH 211955Z AUTO 03004KT 7SM -DZ OVC005 20/19 A3011 RMK AO2 T02000192
KSVH 211935Z AUTO 01006KT 7SM RA OVC005 20/19 A3012 RMK AO2 T02000193
KSVH 211915Z AUTO 04006KT 7SM -DZ OVC005 20/19 A3012 RMK AO2 T02000192